createdAt,value
2023-08-14T00:00:31.364Z,98498.78
2023-08-14T00:03:38.277Z,98503.22
2023-08-14T00:06:45.704Z,98500.59
2023-08-14T00:09:52.717Z,98505.00
2023-08-14T00:13:02.372Z,98513.78
2023-08-14T00:16:12.852Z,98513.00
2023-08-14T00:19:21.312Z,98523.63
2023-08-14T00:22:28.401Z,98520.09
2023-08-14T00:25:36.475Z,98518.31
2023-08-14T00:28:42.416Z,98521.88
2023-08-14T00:31:51.962Z,98517.69
2023-08-14T00:35:02.212Z,98521.72
2023-08-14T00:38:09.272Z,98525.78
2023-08-14T00:41:19.455Z,98538.53
2023-08-14T00:44:35.383Z,98534.38
2023-08-14T00:47:49.595Z,98545.56
2023-08-14T00:50:58.980Z,98542.22
2023-08-14T00:54:07.398Z,98543.56
2023-08-14T00:57:14.589Z,98552.63
2023-08-14T01:00:20.624Z,98560.03
2023-08-14T01:03:31.410Z,98570.03
2023-08-14T01:06:42.759Z,98567.53
2023-08-14T01:09:52.390Z,98562.81
2023-08-14T01:13:20.856Z,98567.03
2023-08-14T01:16:35.031Z,98572.09
2023-08-14T01:19:48.685Z,98557.34
2023-08-14T01:23:09.367Z,98551.81
2023-08-14T01:26:21.267Z,98559.19
2023-08-14T01:29:28.546Z,98555.84
2023-08-14T01:32:35.729Z,98546.94
2023-08-14T01:35:49.098Z,98552.47
2023-08-14T01:39:11.370Z,98555.34
2023-08-14T01:42:32.322Z,98552.84
2023-08-14T01:45:45.452Z,98555.69
2023-08-14T01:48:56.808Z,98554.38
2023-08-14T01:52:09.762Z,98550.66
2023-08-14T01:55:17.355Z,98558.53
2023-08-14T01:58:28.377Z,98552.34
2023-08-14T02:01:36.104Z,98547.66
2023-08-14T02:04:43.658Z,98551.03
2023-08-14T02:07:54.283Z,98547.50
2023-08-14T02:11:00.485Z,98551.38
2023-08-14T02:14:09.674Z,98551.72
2023-08-14T02:17:15.518Z,98553.75
2023-08-14T02:20:23.211Z,98549.88
2023-08-14T02:23:31.477Z,98550.19
2023-08-14T02:26:38.267Z,98545.38
2023-08-14T02:29:48.550Z,98550.72
2023-08-14T02:32:55.120Z,98552.38
2023-08-14T02:36:01.190Z,98547.88
2023-08-14T02:39:12.898Z,98545.69
2023-08-14T02:42:23.131Z,98544.34
2023-08-14T02:45:33.701Z,98558.72
2023-08-14T02:48:42.460Z,98545.16
2023-08-14T02:51:51.189Z,98559.72
2023-08-14T02:54:57.993Z,98558.03
2023-08-14T02:58:06.333Z,98565.75
2023-08-14T03:01:15.608Z,98570.13
2023-08-14T03:04:22.188Z,98571.78
2023-08-14T03:07:30.160Z,98571.44
2023-08-14T03:10:36.482Z,98575.50
2023-08-14T03:13:46.599Z,98575.97
2023-08-14T03:16:55.070Z,98578.53
2023-08-14T03:20:02.574Z,98576.38
2023-08-14T03:23:08.576Z,98570.47
2023-08-14T03:26:15.682Z,98587.59
2023-08-14T03:29:23.165Z,98582.56
2023-08-14T03:32:41.266Z,98587.41
2023-08-14T03:35:49.308Z,98588.59
2023-08-14T03:38:58.422Z,98586.41
2023-08-14T03:42:05.557Z,98583.75
2023-08-14T03:45:14.395Z,98598.50
2023-08-14T03:48:22.813Z,98600.00
2023-08-14T03:51:29.452Z,98578.94
2023-08-14T03:54:38.429Z,98598.38
2023-08-14T03:57:45.451Z,98598.03
2023-08-14T04:00:52.521Z,98593.34
2023-08-14T04:04:02.309Z,98597.72
2023-08-14T04:07:09.004Z,98605.09
2023-08-14T04:10:18.148Z,98593.84
2023-08-14T04:13:24.860Z,98599.22
2023-08-14T04:16:45.184Z,98601.03
2023-08-14T04:19:53.854Z,98582.56
2023-08-14T04:23:01.567Z,98596.19
2023-08-14T04:26:11.429Z,98596.19
2023-08-14T04:29:21.913Z,98601.56
2023-08-14T04:32:27.790Z,98607.59
2023-08-14T04:35:38.748Z,98603.06
2023-08-14T04:38:45.349Z,98616.13
2023-08-14T04:41:54.630Z,98609.09
2023-08-14T04:45:04.770Z,98618.13
2023-08-14T04:48:11.615Z,98627.19
2023-08-14T04:51:22.317Z,98626.16
2023-08-14T04:54:33.585Z,98617.47
2023-08-14T04:57:39.589Z,98624.47
2023-08-14T05:00:47.966Z,98617.75
2023-08-14T05:03:55.674Z,98617.41
2023-08-14T05:07:06.502Z,98623.25
2023-08-14T05:10:15.472Z,98624.34
2023-08-14T05:13:23.756Z,98615.28
2023-08-14T05:16:29.773Z,98625.97
2023-08-14T05:19:38.443Z,98628.00
2023-08-14T05:22:47.593Z,98628.31
2023-08-14T05:25:55.157Z,98624.41
2023-08-14T05:29:02.673Z,98622.19
2023-08-14T05:32:10.164Z,98613.13
2023-08-14T05:35:17.793Z,98618.06
2023-08-14T05:38:27.805Z,98622.75
2023-08-14T05:41:34.598Z,98624.09
2023-08-14T05:44:41.829Z,98623.00
2023-08-14T05:47:49.682Z,98629.34
2023-08-14T05:50:56.458Z,98621.59
2023-08-14T05:54:06.813Z,98628.78
2023-08-14T05:57:16.041Z,98621.81
2023-08-14T06:00:24.053Z,98625.94
2023-08-14T06:03:44.100Z,98626.44
2023-08-14T06:06:51.070Z,98618.94
2023-08-14T06:10:00.285Z,98622.06
2023-08-14T06:13:06.427Z,98622.28
2023-08-14T06:16:15.769Z,98626.19
2023-08-14T06:19:21.961Z,98635.03
2023-08-14T06:22:31.895Z,98629.38
2023-08-14T06:25:42.506Z,98626.13
2023-08-14T06:28:49.120Z,98628.72
2023-08-14T06:31:55.549Z,98629.84
2023-08-14T06:35:02.247Z,98632.28
2023-08-14T06:38:08.270Z,98632.38
2023-08-14T06:41:19.762Z,98627.34
2023-08-14T06:44:25.857Z,98630.56
2023-08-14T06:47:32.583Z,98632.31
2023-08-14T06:50:38.643Z,98630.63
2023-08-14T06:53:47.595Z,98637.41
2023-08-14T06:56:56.077Z,98637.75
2023-08-14T07:00:08.822Z,98630.34
2023-08-14T07:03:14.780Z,98628.69
2023-08-14T07:06:21.735Z,98636.22
2023-08-14T07:09:27.713Z,98641.22
2023-08-14T07:12:37.199Z,98645.56
2023-08-14T07:15:43.261Z,98647.63
2023-08-14T07:18:50.612Z,98658.69
2023-08-14T07:21:56.557Z,98658.31
2023-08-14T07:25:06.799Z,98652.69
2023-08-14T07:28:15.907Z,98647.66
2023-08-14T07:31:24.113Z,98653.13
2023-08-14T07:34:32.140Z,98657.75
2023-08-14T07:37:41.998Z,98659.28
2023-08-14T07:40:49.846Z,98662.66
2023-08-14T07:44:03.693Z,98654.19
2023-08-14T07:47:12.452Z,98652.53
2023-08-14T07:50:19.304Z,98654.19
2023-08-14T07:53:26.461Z,98649.56
2023-08-14T07:56:33.118Z,98652.53
2023-08-14T07:59:41.601Z,98655.78
2023-08-14T08:02:48.577Z,98650.34
2023-08-14T08:05:54.672Z,98663.22
2023-08-14T08:09:01.384Z,98659.69
2023-08-14T08:12:08.596Z,98664.03
2023-08-14T08:15:18.036Z,98669.84
2023-08-14T08:18:23.830Z,98666.91
2023-08-14T08:21:30.764Z,98672.47
2023-08-14T08:24:36.540Z,98668.50
2023-08-14T08:27:45.884Z,98672.22
2023-08-14T08:30:55.103Z,98667.38
2023-08-14T08:34:03.567Z,98669.22
2023-08-14T08:37:10.034Z,98667.53
2023-08-14T08:40:18.790Z,98660.88
2023-08-14T08:43:27.411Z,98667.50
2023-08-14T08:46:48.149Z,98652.91
2023-08-14T08:49:55.733Z,98655.03
2023-08-14T08:53:05.141Z,98644.81
2023-08-14T08:56:11.249Z,98655.09
2023-08-14T08:59:22.643Z,98653.88
2023-08-14T09:02:32.440Z,98649.72
2023-08-14T09:05:40.684Z,98646.25
2023-08-14T09:08:46.836Z,98656.66
2023-08-14T09:11:57.029Z,98642.16
2023-08-14T09:15:10.899Z,98640.34
2023-08-14T09:18:20.600Z,98638.94
2023-08-14T09:21:26.560Z,98634.16
2023-08-14T09:24:38.011Z,98636.28
2023-08-14T09:27:46.009Z,98645.84
2023-08-14T09:30:52.885Z,98636.72
2023-08-14T09:34:05.944Z,98644.03
2023-08-14T09:37:12.663Z,98644.69
2023-08-14T09:40:21.091Z,98639.72
2023-08-14T09:43:30.119Z,98644.13
2023-08-14T09:46:36.340Z,98639.38
2023-08-14T09:49:49.219Z,98642.34
2023-08-14T09:52:59.273Z,98647.34
2023-08-14T09:56:12.025Z,98647.56
2023-08-14T09:59:17.842Z,98631.91
2023-08-14T10:02:34.876Z,98646.38
2023-08-14T10:05:46.939Z,98639.16
2023-08-14T10:09:03.682Z,98636.25
2023-08-14T10:12:17.780Z,98630.00
2023-08-14T10:15:39.848Z,98643.94
2023-08-14T10:18:52.193Z,98633.78
2023-08-14T10:22:07.654Z,98632.38
2023-08-14T10:25:24.248Z,98631.97
2023-08-14T10:28:40.766Z,98640.94
2023-08-14T10:31:49.240Z,98638.25
2023-08-14T10:34:58.726Z,98634.75
2023-08-14T10:38:10.722Z,98633.31
2023-08-14T10:41:21.228Z,98627.34
2023-08-14T10:44:38.213Z,98621.56
2023-08-14T10:47:46.919Z,98626.56
2023-08-14T10:51:03.613Z,98624.94
2023-08-14T10:54:18.231Z,98613.28
2023-08-14T10:57:32.646Z,98619.56
2023-08-14T11:00:48.892Z,98614.56
2023-08-14T11:04:09.347Z,98617.94
2023-08-14T11:07:16.091Z,98622.53
2023-08-14T11:10:24.791Z,98602.56
2023-08-14T11:13:41.646Z,98602.16
2023-08-14T11:16:50.928Z,98608.41
2023-08-14T11:19:58.106Z,98605.09
2023-08-14T11:23:05.905Z,98601.34
2023-08-14T11:26:15.729Z,98599.69
2023-08-14T11:29:22.101Z,98602.59
2023-08-14T11:32:30.201Z,98603.44
2023-08-14T11:35:38.522Z,98589.69
2023-08-14T11:38:51.428Z,98590.97
2023-08-14T11:42:07.101Z,98591.38
2023-08-14T11:45:18.540Z,98583.91
2023-08-14T11:48:25.595Z,98589.72
2023-08-14T11:51:34.872Z,98579.09
2023-08-14T11:54:41.423Z,98581.78
2023-08-14T11:57:53.941Z,98581.38
2023-08-14T12:01:01.441Z,98569.31
2023-08-14T12:04:12.937Z,98572.66
2023-08-14T12:07:27.125Z,98575.16
2023-08-14T12:10:39.678Z,98571.38
2023-08-14T12:13:53.238Z,98563.91
2023-08-14T12:17:04.363Z,98569.31
2023-08-14T12:20:27.936Z,98571.78
2023-08-14T12:23:37.311Z,98559.28
2023-08-14T12:26:45.579Z,98560.50
2023-08-14T12:29:57.719Z,98561.34
2023-08-14T12:33:06.019Z,98558.41
2023-08-14T12:36:15.683Z,98538.41
2023-08-14T12:39:23.680Z,98558.41
2023-08-14T12:42:31.717Z,98552.13
2023-08-14T12:45:40.182Z,98552.94
2023-08-14T12:48:47.151Z,98555.84
2023-08-14T12:52:00.931Z,98546.25
2023-08-14T12:55:09.607Z,98549.56
2023-08-14T12:58:19.644Z,98553.53
2023-08-14T13:01:30.733Z,98553.72
2023-08-14T13:04:36.997Z,98553.06
2023-08-14T13:07:44.095Z,98552.41
2023-08-14T13:10:52.237Z,98551.56
2023-08-14T13:13:59.418Z,98557.38
2023-08-14T13:17:10.096Z,98554.88
2023-08-14T13:20:19.310Z,98544.41
2023-08-14T13:23:25.475Z,98546.44
2023-08-14T13:26:38.226Z,98550.59
2023-08-14T13:29:48.537Z,98539.75
2023-08-14T13:33:06.924Z,98538.06
2023-08-14T13:36:12.968Z,98550.09
2023-08-14T13:39:19.636Z,98534.22
2023-08-14T13:42:27.874Z,98532.50
2023-08-14T13:45:38.017Z,98531.63
2023-08-14T13:48:46.885Z,98542.22
2023-08-14T13:51:57.890Z,98539.06
2023-08-14T13:55:05.463Z,98534.47
2023-08-14T13:58:12.471Z,98536.09
2023-08-14T14:01:24.314Z,98533.97
2023-08-14T14:04:33.766Z,98530.97
2023-08-14T14:07:47.369Z,98532.66
2023-08-14T14:10:58.270Z,98526.78
2023-08-14T14:14:07.053Z,98524.44
2023-08-14T14:17:21.939Z,98527.53
2023-08-14T14:20:35.234Z,98521.03
2023-08-14T14:23:49.960Z,98510.81
2023-08-14T14:26:57.312Z,98514.75
2023-08-14T14:30:05.238Z,98506.16
2023-08-14T14:33:11.559Z,98513.88
2023-08-14T14:36:21.523Z,98507.38
2023-08-14T14:39:27.283Z,98513.13
2023-08-14T14:42:34.948Z,98509.34
2023-08-14T14:45:44.671Z,98511.00
2023-08-14T14:48:54.406Z,98502.25
2023-08-14T14:52:09.057Z,98490.56
2023-08-14T14:55:18.951Z,98495.75
2023-08-14T14:58:29.742Z,98505.88
2023-08-14T15:01:38.121Z,98501.03
2023-08-14T15:04:44.760Z,98497.28
2023-08-14T15:07:54.628Z,98495.75
2023-08-14T15:11:00.491Z,98503.22
2023-08-14T15:14:08.253Z,98493.56
2023-08-14T15:17:15.066Z,98493.97
2023-08-14T15:20:29.521Z,98484.13
2023-08-14T15:23:37.953Z,98490.63
2023-08-14T15:26:52.304Z,98482.03
2023-08-14T15:30:01.229Z,98475.91
2023-08-14T15:33:13.362Z,98477.47
2023-08-14T15:36:19.981Z,98470.00
2023-08-14T15:39:34.147Z,98470.59
2023-08-14T15:42:41.039Z,98468.97
2023-08-14T15:45:49.026Z,98471.44
2023-08-14T15:48:57.301Z,98478.97
2023-08-14T15:52:04.042Z,98479.56
2023-08-14T15:55:13.480Z,98477.75
2023-08-14T15:58:20.686Z,98469.56
2023-08-14T16:01:27.123Z,98478.84
2023-08-14T16:04:37.199Z,98477.97
2023-08-14T16:07:45.609Z,98478.06
2023-08-14T16:10:58.417Z,98475.88
2023-08-14T16:14:10.333Z,98472.44
2023-08-14T16:17:18.800Z,98484.16
2023-08-14T16:20:26.630Z,98481.75
2023-08-14T16:23:33.433Z,98493.66
2023-08-14T16:26:41.874Z,98499.16
2023-08-14T16:29:49.666Z,98490.94
2023-08-14T16:32:55.668Z,98499.78
2023-08-14T16:36:05.173Z,98499.25
2023-08-14T16:39:14.620Z,98504.22
2023-08-14T16:42:24.900Z,98504.22
2023-08-14T16:45:30.876Z,98507.78
2023-08-14T16:48:37.796Z,98506.66
2023-08-14T16:51:43.583Z,98507.19
2023-08-14T16:54:51.295Z,98508.75
2023-08-14T16:57:59.896Z,98514.91
2023-08-14T17:01:10.164Z,98515.81
2023-08-14T17:04:18.966Z,98508.97
2023-08-14T17:07:27.645Z,98523.91
2023-08-14T17:10:37.320Z,98517.41
2023-08-14T17:13:46.676Z,98519.41
2023-08-14T17:16:55.297Z,98521.81
2023-08-14T17:20:02.195Z,98519.97
2023-08-14T17:23:10.076Z,98517.28
2023-08-14T17:26:17.038Z,98519.00
2023-08-14T17:29:25.477Z,98522.03
2023-08-14T17:32:34.028Z,98520.13
2023-08-14T17:35:40.114Z,98518.34
2023-08-14T17:38:49.258Z,98524.50
2023-08-14T17:41:58.213Z,98531.78
2023-08-14T17:45:10.855Z,98526.47
2023-08-14T17:48:23.169Z,98527.19
2023-08-14T17:51:29.860Z,98530.34
2023-08-14T17:54:38.175Z,98532.31
2023-08-14T17:57:44.936Z,98534.16
2023-08-14T18:00:53.822Z,98534.13
2023-08-14T18:04:02.560Z,98528.22
2023-08-14T18:07:09.233Z,98531.66
2023-08-14T18:10:15.949Z,98534.53
2023-08-14T18:13:22.542Z,98531.09
2023-08-14T18:16:33.893Z,98525.97
2023-08-14T18:19:39.862Z,98527.50
2023-08-14T18:22:48.535Z,98522.56
2023-08-14T18:25:57.493Z,98534.25
2023-08-14T18:29:05.360Z,98544.28
2023-08-14T18:32:14.134Z,98532.47
2023-08-14T18:35:23.273Z,98536.19
2023-08-14T18:38:29.134Z,98532.47
2023-08-14T18:41:38.192Z,98539.34
2023-08-14T18:44:44.059Z,98533.88
2023-08-14T18:47:55.312Z,98542.59
2023-08-14T18:51:01.384Z,98548.81
2023-08-14T18:54:09.347Z,98546.91
2023-08-14T18:57:15.112Z,98544.13
2023-08-14T19:00:22.094Z,98537.88
2023-08-14T19:03:35.631Z,98541.13
2023-08-14T19:06:44.709Z,98543.38
2023-08-14T19:09:51.492Z,98541.88
2023-08-14T19:13:02.290Z,98533.47
2023-08-14T19:16:12.409Z,98540.28
2023-08-14T19:19:24.942Z,98546.22
2023-08-14T19:22:31.096Z,98545.75
2023-08-14T19:25:40.135Z,98543.19
2023-08-14T19:28:46.706Z,98548.09
2023-08-14T19:31:58.584Z,98557.13
2023-08-14T19:35:08.430Z,98556.25
2023-08-14T19:38:15.167Z,98550.16
2023-08-14T19:41:21.208Z,98558.38
2023-08-14T19:44:28.265Z,98556.88
2023-08-14T19:47:34.071Z,98566.72
2023-08-14T19:50:49.037Z,98569.53
2023-08-14T19:53:56.395Z,98570.88
2023-08-14T19:57:03.807Z,98580.31
2023-08-14T20:00:11.998Z,98583.75
2023-08-14T20:03:20.076Z,98576.63
2023-08-14T20:06:29.113Z,98577.19
2023-08-14T20:09:36.721Z,98572.16
2023-08-14T20:12:43.675Z,98579.31
2023-08-14T20:15:51.647Z,98583.78
2023-08-14T20:18:57.536Z,98580.31
2023-08-14T20:22:12.547Z,98583.94
2023-08-14T20:25:18.537Z,98592.16
2023-08-14T20:28:27.447Z,98592.88
2023-08-14T20:31:33.521Z,98587.59
2023-08-14T20:34:40.255Z,98586.66
2023-08-14T20:37:48.693Z,98590.44
2023-08-14T20:40:59.303Z,98587.84
2023-08-14T20:44:05.143Z,98583.53
2023-08-14T20:47:14.951Z,98587.81
2023-08-14T20:50:20.906Z,98581.66
2023-08-14T20:53:30.334Z,98584.59
2023-08-14T20:56:38.136Z,98585.50
2023-08-14T20:59:45.956Z,98585.78
2023-08-14T21:02:51.966Z,98586.84
2023-08-14T21:05:58.823Z,98588.72
2023-08-14T21:09:08.173Z,98596.47
2023-08-14T21:27:09.691Z,98592.97
2023-08-14T21:30:50.811Z,98599.44
2023-08-14T21:33:57.283Z,98595.94
2023-08-14T21:37:07.400Z,98585.03
2023-08-14T21:40:15.229Z,98597.78
2023-08-14T21:43:21.974Z,98593.13
2023-08-14T21:46:35.587Z,98584.09
2023-08-14T21:49:42.429Z,98583.78
2023-08-14T21:52:48.274Z,98573.59
2023-08-14T21:55:56.890Z,98577.78
2023-08-14T21:59:03.257Z,98575.63
2023-08-14T22:02:12.572Z,98549.19
2023-08-14T22:05:18.578Z,98575.81
2023-08-14T22:08:25.515Z,98572.13
2023-08-14T22:11:32.367Z,98568.13
2023-08-14T22:14:39.439Z,98565.81
2023-08-14T22:17:48.380Z,98569.97
2023-08-14T22:20:58.170Z,98566.13
2023-08-14T22:33:41.699Z,98560.81
2023-08-14T22:36:51.367Z,98562.34
2023-08-14T22:39:57.260Z,98568.88
2023-08-14T22:43:04.016Z,98560.84
2023-08-14T22:46:09.839Z,98562.16
2023-08-14T22:49:19.170Z,98561.19
2023-08-14T22:52:25.136Z,98564.19
2023-08-14T22:55:33.165Z,98563.38
2023-08-14T22:58:38.945Z,98567.88
2023-08-14T23:01:46.942Z,98570.72
2023-08-14T23:05:05.444Z,98560.50
2023-08-14T23:08:12.077Z,98574.91
2023-08-14T23:11:18.524Z,98567.22
2023-08-14T23:14:27.235Z,98569.41
2023-08-14T23:17:33.032Z,98573.38
2023-08-14T23:20:46.862Z,98570.88
2023-08-14T23:38:22.222Z,98579.22
2023-08-14T23:41:28.255Z,98581.75
2023-08-14T23:44:43.020Z,98589.59
2023-08-14T23:47:49.177Z,98592.78
2023-08-14T23:50:55.862Z,98590.28
2023-08-14T23:58:55.625Z,98603.16
